East Worcester, NY (12064)

7:08 AM EDT on August 28, 2014 (GMT -0400)
Worcester Farm | Change Station
CLOSE
Current Station
Personal Weather Station
Location: Worcester, NY
Elevation: 1759 ft
Nearby Weather Stations

Elev 1759 ft 42.62 °N, 74.75 °W | Updated 31 seconds ago

Mostly Cloudy
Mostly Cloudy
58.0 °F
Feels Like 58.0 °F
N
4.0
Wind Variable Wind from WNW
Gusts 10.0 mph

Today
High -- | Low -- °F
--% Chance of Precip.
Yesterday
High -- | Low -- °F
Precip. -- in
6:19 AM 7:39 PM
Waxing Crescent, 7% visible
Pressure 29.92 in
Visibility 10.0 miles
Clouds Few 1500 ft
Few 4000 ft
Scattered Clouds 5500 ft
Scattered Clouds 20000 ft
Dew Point 55 °F
Humidity 91%
Rainfall 0.00 in
Snow Depth Not available.
UV 0 out of 12
Pollen 9.40 out of 12
PM2.5 Good
Flu Activity Not available.
METAR KALB 281051Z 32006KT 10SM FEW015 FEW040 SCT055 SCT200 17/14 A2992 RMK AO2 SLP130 T01720144

More Conditions Fewer Conditions

Pressure 29.92 in
Visibility 10.0 miles
Clouds Few 1500 ft
Few 4000 ft
Scattered Clouds 5500 ft
Scattered Clouds 20000 ft
Dew Point 55 °F
Humidity 91%
Rainfall 0.00 in
Snow Depth Not available.
UV 0 out of 12
Pollen 9.40 out of 12
PM2.5 Good
Flu Activity Not available.
METAR KALB 281051Z 32006KT 10SM FEW015 FEW040 SCT055 SCT200 17/14 A2992 RMK AO2 SLP130 T01720144

More Conditions Fewer Conditions

10-Day Weather Forecast

Almanac

Astronomy

Aug. 28, 2014 Rise Set
Actual Time 6:19 AM EDT 7:39 PM EDT
Civil Twilight 5:49 AM EDT 8:08 PM EDT
Nautical Twilight 5:14 AM EDT 8:43 PM EDT
Astronomical Twilight 4:37 AM EDT 9:20 PM EDT
Moon 9:13 AM EDT 8:57 PM EDT
Length of Visible Light 14h 18m
Length of Day
13h 20m
Tomorrow will be 2m 44s shorter.
Waxing Crescent, 7% of the Moon is Illuminated
Today
Waxing Crescent
Sep 2
First Quarter
Sep 8
Full
Sep 15
Last Quarter
Sep 24
New

Today's Extremes

State Highs State Lows

Community

WunderPhotos

Upload Photos

1,747,923 photos uploaded!

Nearby

Air Quality

  Air Quality AQ Index Pollutant
Yesterday Good
PM2.5
Yesterday Good
OZONE
Current Good
PM2.5
Thursday Good
OZONE
Thursday Good
PM2.5

Snow Depth

Station Depth Elevation
No new snow has been reported.

Earthquake Activity

City Distance Mag. Time & Date
No recent earthquake activity has been reported nearby.
Minimum magnitude displayed is 2.5.

Coastal Water Temperatures

Place Temperature
No Stations Reporting

Nearby Weather Stations